createdAt,value
2018-08-12T00:00:12.696Z,14.90
2018-08-12T00:02:41.349Z,14.80
2018-08-12T00:05:09.840Z,14.80
2018-08-12T00:07:38.707Z,14.70
2018-08-12T00:10:09.261Z,14.70
2018-08-12T00:12:37.796Z,14.60
2018-08-12T00:15:07.700Z,14.60
2018-08-12T00:17:36.304Z,14.50
2018-08-12T00:20:08.516Z,14.50
2018-08-12T00:22:37.535Z,14.50
2018-08-12T00:25:09.554Z,14.50
2018-08-12T00:27:40.043Z,14.50
2018-08-12T00:30:10.417Z,14.50
2018-08-12T00:32:39.424Z,14.50
2018-08-12T00:35:11.113Z,14.40
2018-08-12T00:37:43.821Z,14.40
2018-08-12T00:40:13.908Z,14.40
2018-08-12T00:42:42.808Z,14.40
2018-08-12T00:45:14.483Z,14.40
2018-08-12T00:47:43.452Z,14.30
2018-08-12T00:50:13.256Z,14.30
2018-08-12T00:52:42.514Z,14.40
2018-08-12T00:55:17.099Z,14.30
2018-08-12T00:57:46.512Z,14.30
2018-08-12T01:00:21.247Z,14.30
2018-08-12T01:02:52.872Z,14.30
2018-08-12T01:05:21.324Z,14.20
2018-08-12T01:07:50.704Z,14.20
2018-08-12T01:10:20.783Z,14.10
2018-08-12T01:12:49.380Z,14.10
2018-08-12T01:15:21.055Z,14.10
2018-08-12T01:17:49.532Z,14.00
2018-08-12T01:20:22.243Z,13.90
2018-08-12T01:22:50.792Z,14.00
2018-08-12T01:25:22.987Z,13.90
2018-08-12T01:27:52.863Z,13.90
2018-08-12T01:30:24.761Z,13.80
2018-08-12T01:32:53.596Z,13.70
2018-08-12T01:35:22.389Z,13.70
2018-08-12T01:37:54.668Z,13.70
2018-08-12T01:40:23.329Z,13.60
2018-08-12T01:42:51.752Z,13.60
2018-08-12T01:45:21.357Z,13.60
2018-08-12T01:47:50.131Z,13.60
2018-08-12T01:50:19.754Z,13.50
2018-08-12T01:52:48.649Z,13.40
2018-08-12T01:55:18.598Z,13.40
2018-08-12T01:57:47.272Z,13.40
2018-08-12T02:00:19.211Z,13.40
2018-08-12T02:02:48.653Z,13.40
2018-08-12T02:05:17.541Z,13.30
2018-08-12T02:07:47.331Z,13.30
2018-08-12T02:10:15.992Z,13.20
2018-08-12T02:12:45.299Z,13.20
2018-08-12T02:15:14.834Z,13.20
2018-08-12T02:17:43.232Z,13.20
2018-08-12T02:20:12.736Z,13.10
2018-08-12T02:22:41.885Z,13.10
2018-08-12T02:25:11.288Z,13.10
2018-08-12T02:27:39.783Z,13.10
2018-08-12T02:30:10.414Z,13.10
2018-08-12T02:32:39.501Z,13.10
2018-08-12T02:35:08.509Z,13.10
2018-08-12T02:37:44.685Z,13.10
2018-08-12T02:40:14.321Z,13.10
2018-08-12T02:42:42.932Z,13.10
2018-08-12T02:45:15.127Z,13.10
2018-08-12T02:47:43.710Z,13.00
2018-08-12T02:50:12.427Z,13.00
2018-08-12T02:52:40.855Z,13.00
2018-08-12T02:55:10.471Z,12.90
2018-08-12T02:57:39.420Z,12.90
2018-08-12T03:00:10.337Z,12.90
2018-08-12T03:02:38.772Z,12.80
2018-08-12T03:05:07.415Z,12.80
2018-08-12T03:07:36.559Z,12.80
2018-08-12T03:10:06.106Z,12.90
2018-08-12T03:12:36.805Z,12.80
2018-08-12T03:15:07.353Z,12.70
2018-08-12T03:17:36.165Z,12.70
2018-08-12T03:20:11.844Z,12.70
2018-08-12T03:22:40.416Z,12.60
2018-08-12T03:25:10.255Z,12.60
2018-08-12T03:27:39.299Z,12.60
2018-08-12T03:30:08.987Z,12.60
2018-08-12T03:32:37.564Z,12.50
2018-08-12T03:35:06.688Z,12.50
2018-08-12T03:37:35.320Z,12.50
2018-08-12T03:40:05.612Z,12.50
2018-08-12T03:42:34.077Z,12.50
2018-08-12T03:45:02.499Z,12.50
2018-08-12T03:47:31.790Z,12.40
2018-08-12T03:50:00.188Z,12.40
2018-08-12T03:52:28.951Z,12.40
2018-08-12T03:54:57.735Z,12.50
2018-08-12T03:57:26.236Z,12.50
2018-08-12T03:59:54.836Z,12.40
2018-08-12T04:02:23.367Z,12.50
2018-08-12T04:04:51.769Z,12.40
2018-08-12T04:07:20.551Z,12.40
2018-08-12T04:09:49.039Z,12.30
2018-08-12T04:12:17.855Z,12.30
2018-08-12T04:14:46.572Z,12.30
2018-08-12T04:17:15.140Z,12.30
2018-08-12T04:19:43.880Z,12.30
2018-08-12T04:22:12.738Z,12.30
2018-08-12T04:24:41.404Z,12.30
2018-08-12T04:27:09.987Z,12.30
2018-08-12T04:29:38.649Z,12.30
2018-08-12T04:32:07.304Z,12.30
2018-08-12T04:34:35.783Z,12.30
2018-08-12T04:37:04.252Z,12.40
2018-08-12T04:39:32.823Z,12.40
2018-08-12T04:42:03.518Z,12.40
2018-08-12T04:44:32.005Z,12.50
2018-08-12T04:47:00.765Z,12.50
2018-08-12T04:49:34.206Z,12.60
2018-08-12T04:52:02.744Z,12.60
2018-08-12T04:54:31.284Z,12.60
2018-08-12T04:57:04.477Z,12.70
2018-08-12T04:59:36.246Z,12.70
2018-08-12T05:02:04.808Z,12.90
2018-08-12T05:04:33.312Z,13.00
2018-08-12T05:07:01.869Z,13.00
2018-08-12T05:09:30.497Z,13.10
2018-08-12T05:12:00.057Z,13.30
2018-08-12T05:14:28.575Z,13.30
2018-08-12T05:16:57.490Z,13.50
2018-08-12T05:19:26.473Z,13.70
2018-08-12T05:21:55.131Z,13.70
2018-08-12T05:24:23.880Z,13.80
2018-08-12T05:26:52.884Z,13.90
2018-08-12T05:29:21.508Z,14.00
2018-08-12T05:31:50.031Z,14.00
2018-08-12T05:34:18.468Z,14.10
2018-08-12T05:36:47.054Z,14.30
2018-08-12T05:39:15.681Z,14.30
2018-08-12T05:41:44.510Z,14.40
2018-08-12T05:44:12.941Z,14.40
2018-08-12T05:46:41.371Z,14.50
2018-08-12T05:49:09.826Z,14.60
2018-08-12T05:51:38.223Z,14.60
2018-08-12T05:54:06.686Z,14.70
2018-08-12T05:56:35.118Z,14.70
2018-08-12T05:59:03.581Z,14.80
2018-08-12T06:01:32.076Z,14.90
2018-08-12T06:04:00.501Z,15.10
2018-08-12T06:06:28.964Z,15.10
2018-08-12T06:08:57.394Z,15.20
2018-08-12T06:11:25.828Z,15.40
2018-08-12T06:13:54.247Z,15.70
2018-08-12T06:16:22.669Z,16.10
2018-08-12T06:18:51.050Z,16.60
2018-08-12T06:21:19.544Z,17.20
2018-08-12T06:23:47.964Z,17.60
2018-08-12T06:26:16.381Z,18.00
2018-08-12T06:28:44.776Z,18.40
2018-08-12T06:31:13.192Z,19.20
2018-08-12T06:33:41.699Z,19.30
2018-08-12T06:36:10.157Z,19.10
2018-08-12T06:38:38.560Z,18.80
2018-08-12T06:41:07.076Z,18.40
2018-08-12T06:43:35.578Z,18.30
2018-08-12T06:46:04.038Z,18.10
2018-08-12T06:48:32.465Z,17.90
2018-08-12T06:51:00.864Z,17.70
2018-08-12T06:53:29.289Z,17.60
2018-08-12T06:55:57.912Z,17.60
2018-08-12T06:58:26.355Z,17.70
2018-08-12T07:00:54.794Z,17.80
2018-08-12T07:03:23.281Z,17.80
2018-08-12T07:05:51.724Z,17.70
2018-08-12T07:08:20.296Z,18.00
2018-08-12T07:10:48.804Z,18.00
2018-08-12T07:13:17.222Z,18.20
2018-08-12T07:15:45.636Z,18.40
2018-08-12T07:18:14.073Z,18.60
2018-08-12T07:20:42.546Z,18.80
2018-08-12T07:23:10.990Z,19.00
2018-08-12T07:25:39.408Z,19.10
2018-08-12T07:28:07.984Z,19.30
2018-08-12T07:30:36.428Z,19.30
2018-08-12T07:33:05.089Z,19.30
2018-08-12T07:35:33.528Z,19.50
2018-08-12T07:38:01.947Z,19.50
2018-08-12T07:40:30.393Z,19.60
2018-08-12T07:42:58.821Z,19.70
2018-08-12T07:45:27.298Z,19.80
2018-08-12T07:47:55.807Z,20.00
2018-08-12T07:50:24.261Z,20.00
2018-08-12T07:52:52.688Z,20.20
2018-08-12T07:55:21.184Z,20.30
2018-08-12T07:57:49.633Z,20.50
2018-08-12T08:00:20.117Z,20.60
2018-08-12T08:02:48.806Z,20.80
2018-08-12T08:05:17.297Z,20.80
2018-08-12T08:07:45.801Z,20.90
2018-08-12T08:10:15.780Z,20.90
2018-08-12T08:12:44.560Z,20.90
2018-08-12T08:15:17.569Z,20.90
2018-08-12T08:17:46.335Z,21.10
2018-08-12T08:20:15.813Z,21.20
2018-08-12T08:22:44.524Z,21.40
2018-08-12T08:25:13.400Z,21.40
2018-08-12T08:27:41.985Z,21.50
2018-08-12T08:30:13.553Z,21.60
2018-08-12T08:32:42.319Z,21.80
2018-08-12T08:35:11.504Z,21.90
2018-08-12T08:37:40.307Z,21.90
2018-08-12T08:40:10.777Z,22.20
2018-08-12T08:42:39.271Z,22.30
2018-08-12T08:45:11.320Z,22.40
2018-08-12T08:47:39.783Z,22.50
2018-08-12T08:50:08.550Z,22.50
2018-08-12T08:52:37.765Z,22.50
2018-08-12T08:55:07.483Z,22.50
2018-08-12T08:57:36.252Z,22.40
2018-08-12T09:00:07.741Z,22.50
2018-08-12T09:02:36.281Z,22.50
2018-08-12T09:05:05.885Z,22.50
2018-08-12T09:07:34.384Z,22.60
2018-08-12T09:10:03.401Z,22.90
2018-08-12T09:12:32.004Z,22.90
2018-08-12T09:15:00.494Z,22.80
2018-08-12T09:17:28.950Z,22.90
2018-08-12T09:19:57.497Z,22.90
2018-08-12T09:22:26.205Z,22.90
2018-08-12T09:24:54.633Z,23.10
2018-08-12T09:27:23.093Z,23.10
2018-08-12T09:29:51.516Z,23.00
2018-08-12T09:32:19.920Z,23.00
2018-08-12T09:34:48.347Z,23.20
2018-08-12T09:37:16.771Z,23.40
2018-08-12T09:39:45.195Z,23.30
2018-08-12T09:42:13.656Z,23.40
2018-08-12T09:44:42.087Z,23.50
2018-08-12T09:47:10.512Z,23.40
2018-08-12T09:49:39.562Z,23.50
2018-08-12T09:52:08.090Z,23.70
2018-08-12T09:54:36.668Z,23.80
2018-08-12T09:57:05.183Z,24.00
2018-08-12T09:59:33.608Z,24.00
2018-08-12T10:02:02.036Z,24.10
2018-08-12T10:04:30.521Z,24.10
2018-08-12T10:06:59.152Z,24.20
2018-08-12T10:09:27.597Z,24.40
2018-08-12T10:11:56.015Z,24.50
2018-08-12T10:14:24.440Z,24.50
2018-08-12T10:16:52.907Z,24.50
2018-08-12T10:19:21.434Z,24.50
2018-08-12T10:21:49.984Z,24.50
2018-08-12T10:24:18.649Z,24.60
2018-08-12T10:26:47.101Z,24.80
2018-08-12T10:29:15.607Z,24.90
2018-08-12T10:31:44.163Z,24.90
2018-08-12T10:34:12.630Z,25.00
2018-08-12T10:36:41.068Z,24.90
2018-08-12T10:39:09.899Z,25.00
2018-08-12T10:41:38.364Z,24.90
2018-08-12T10:44:06.884Z,25.00
2018-08-12T10:46:35.345Z,25.10
2018-08-12T10:49:03.827Z,24.50
2018-08-12T10:51:32.307Z,24.30
2018-08-12T10:54:00.815Z,24.60
2018-08-12T10:56:29.342Z,24.70
2018-08-12T10:58:57.850Z,24.70
2018-08-12T11:01:26.385Z,24.80
2018-08-12T11:03:54.837Z,24.90
2018-08-12T11:06:23.333Z,25.20
2018-08-12T11:08:51.808Z,25.40
2018-08-12T11:11:20.388Z,25.40
2018-08-12T11:13:48.805Z,25.20
2018-08-12T11:16:17.299Z,25.00
2018-08-12T11:18:45.752Z,25.00
2018-08-12T11:21:14.160Z,25.10
2018-08-12T11:23:42.692Z,25.20
2018-08-12T11:26:11.142Z,25.30
2018-08-12T11:28:39.648Z,25.30
2018-08-12T11:31:08.099Z,25.20
2018-08-12T11:33:36.574Z,25.50
2018-08-12T11:36:05.096Z,25.50
2018-08-12T11:38:33.556Z,25.70
2018-08-12T11:41:02.024Z,25.70
2018-08-12T11:43:33.323Z,25.50
2018-08-12T11:46:02.606Z,25.70
2018-08-12T11:48:31.164Z,25.80
2018-08-12T11:50:59.709Z,25.90
2018-08-12T11:53:28.192Z,26.00
2018-08-12T11:55:56.707Z,26.10
2018-08-12T11:58:25.164Z,26.10
2018-08-12T12:00:53.656Z,26.30
2018-08-12T12:03:22.171Z,26.10
2018-08-12T12:05:50.609Z,26.10
2018-08-12T12:08:19.076Z,25.90
2018-08-12T12:10:47.568Z,25.90
2018-08-12T12:13:16.016Z,26.10
2018-08-12T12:15:44.452Z,26.40
2018-08-12T12:18:12.884Z,26.20
2018-08-12T12:20:41.530Z,26.30
2018-08-12T12:23:10.396Z,26.40
2018-08-12T12:25:38.884Z,26.50
2018-08-12T12:28:07.407Z,26.60
2018-08-12T12:30:35.928Z,26.60
2018-08-12T12:33:04.463Z,26.30
2018-08-12T12:35:32.964Z,26.20
2018-08-12T12:38:01.388Z,26.20
2018-08-12T12:40:30.041Z,26.20
2018-08-12T12:42:58.635Z,26.50
2018-08-12T12:45:26.980Z,26.70
2018-08-12T12:47:55.449Z,26.80
2018-08-12T12:50:24.348Z,27.00
2018-08-12T12:52:53.673Z,26.90
2018-08-12T12:55:23.400Z,27.10
2018-08-12T12:57:51.855Z,27.10
2018-08-12T13:00:21.103Z,27.10
2018-08-12T13:02:49.984Z,27.10
2018-08-12T13:05:19.744Z,26.90
2018-08-12T13:07:48.962Z,27.00
2018-08-12T13:10:18.204Z,27.00
2018-08-12T13:12:46.812Z,27.00
2018-08-12T13:15:16.186Z,27.00
2018-08-12T13:17:44.652Z,26.60
2018-08-12T13:20:15.887Z,26.60
2018-08-12T13:22:45.971Z,26.70
2018-08-12T13:25:16.173Z,26.70
2018-08-12T13:27:45.271Z,26.80
2018-08-12T13:30:14.953Z,26.90
2018-08-12T13:32:44.735Z,26.90
2018-08-12T13:35:13.237Z,27.10
2018-08-12T13:37:42.497Z,27.10
2018-08-12T13:40:12.772Z,27.10
2018-08-12T13:42:42.155Z,26.90
2018-08-12T13:45:11.666Z,27.00
2018-08-12T13:47:42.618Z,27.10
2018-08-12T13:50:13.495Z,27.20
2018-08-12T13:52:41.966Z,27.20
2018-08-12T13:55:10.469Z,27.10
2018-08-12T13:57:38.948Z,27.30
2018-08-12T14:00:14.687Z,27.10
2018-08-12T14:02:43.456Z,27.20
2018-08-12T14:05:13.561Z,27.30
2018-08-12T14:07:42.021Z,27.30
2018-08-12T14:10:11.201Z,27.30
2018-08-12T14:12:40.521Z,27.30
2018-08-12T14:15:11.509Z,26.90
2018-08-12T14:17:40.816Z,26.80
2018-08-12T14:20:10.664Z,26.80
2018-08-12T14:22:39.187Z,26.80
2018-08-12T14:25:08.297Z,26.80
2018-08-12T14:27:37.043Z,26.80
2018-08-12T14:30:08.964Z,26.70
2018-08-12T14:32:37.625Z,26.60
2018-08-12T14:35:06.716Z,26.60
2018-08-12T14:37:35.594Z,26.50
2018-08-12T14:40:04.755Z,26.60
2018-08-12T14:42:33.281Z,26.70
2018-08-12T14:45:02.735Z,26.80
2018-08-12T14:47:31.236Z,26.50
2018-08-12T14:49:59.697Z,26.60
2018-08-12T14:52:28.209Z,26.70
2018-08-12T14:54:56.739Z,26.80
2018-08-12T14:57:25.252Z,26.80
2018-08-12T14:59:53.732Z,27.00
2018-08-12T15:02:22.213Z,27.10
2018-08-12T15:04:50.651Z,27.40
2018-08-12T15:07:19.148Z,27.70
2018-08-12T15:09:47.589Z,28.00
2018-08-12T15:12:16.085Z,28.10
2018-08-12T15:14:46.373Z,28.30
2018-08-12T15:17:14.934Z,28.30
2018-08-12T15:19:44.236Z,28.30
2018-08-12T15:22:12.677Z,28.30
2018-08-12T15:24:41.151Z,28.20
2018-08-12T15:27:09.787Z,28.20
2018-08-12T15:29:38.242Z,28.10
2018-08-12T15:32:06.740Z,28.00
2018-08-12T15:34:35.250Z,27.90
2018-08-12T15:37:03.767Z,27.80
2018-08-12T15:39:32.199Z,27.90
2018-08-12T15:42:01.180Z,28.10
2018-08-12T15:44:29.622Z,28.10
2018-08-12T15:46:58.105Z,28.20
2018-08-12T15:49:26.544Z,28.20
2018-08-12T15:51:55.068Z,28.20
2018-08-12T15:54:23.511Z,28.20
2018-08-12T15:56:52.008Z,28.10
2018-08-12T15:59:20.897Z,28.10
2018-08-12T16:01:49.318Z,28.10
2018-08-12T16:04:17.775Z,28.30
2018-08-12T16:06:46.296Z,28.20
2018-08-12T16:09:14.744Z,28.20
2018-08-12T16:11:43.240Z,28.10
2018-08-12T16:14:11.736Z,28.00
2018-08-12T16:16:40.337Z,27.90
2018-08-12T16:19:08.879Z,27.90
2018-08-12T16:21:37.396Z,27.70
2018-08-12T16:24:06.025Z,27.70
2018-08-12T16:26:34.515Z,27.90
2018-08-12T16:29:03.171Z,28.00
2018-08-12T16:31:31.673Z,28.10
2018-08-12T16:34:00.200Z,28.10
2018-08-12T16:36:28.708Z,28.10
2018-08-12T16:38:57.194Z,28.10
2018-08-12T16:41:25.627Z,28.00
2018-08-12T16:43:54.105Z,28.00
2018-08-12T16:46:22.614Z,27.90
2018-08-12T16:48:51.106Z,27.80
2018-08-12T16:51:19.590Z,27.80
2018-08-12T16:53:48.096Z,27.80
2018-08-12T16:56:16.636Z,27.90
2018-08-12T16:58:45.122Z,27.80
2018-08-12T17:01:13.615Z,27.70
2018-08-12T17:03:42.185Z,27.70
2018-08-12T17:06:10.762Z,27.60
2018-08-12T17:08:39.216Z,27.60
2018-08-12T17:11:07.657Z,27.50
2018-08-12T17:13:36.256Z,27.40
2018-08-12T17:16:04.847Z,27.50
2018-08-12T17:18:33.357Z,27.50
2018-08-12T17:21:01.840Z,27.40
2018-08-12T17:23:30.417Z,27.30
2018-08-12T17:25:58.939Z,27.30
2018-08-12T17:28:27.356Z,27.20
2018-08-12T17:30:55.796Z,27.10
2018-08-12T17:33:24.259Z,27.10
2018-08-12T17:35:52.736Z,27.00
2018-08-12T17:38:21.255Z,26.90
2018-08-12T17:40:49.678Z,26.90
2018-08-12T17:43:18.232Z,26.80
2018-08-12T17:45:46.721Z,26.80
2018-08-12T17:48:15.292Z,26.60
2018-08-12T17:50:43.704Z,26.50
2018-08-12T17:53:12.129Z,26.50
2018-08-12T17:55:40.568Z,26.40
2018-08-12T17:58:09.263Z,26.30
2018-08-12T18:00:37.764Z,26.30
2018-08-12T18:03:06.413Z,26.20
2018-08-12T18:05:34.881Z,26.10
2018-08-12T18:08:03.501Z,26.00
2018-08-12T18:10:31.944Z,26.00
2018-08-12T18:13:00.472Z,26.00
2018-08-12T18:15:28.887Z,25.90
2018-08-12T18:17:58.049Z,25.90
2018-08-12T18:20:26.545Z,25.80
2018-08-12T18:22:54.983Z,25.80
2018-08-12T18:25:23.437Z,25.70
2018-08-12T18:27:51.884Z,25.60
2018-08-12T18:30:20.417Z,25.50
2018-08-12T18:32:48.853Z,25.30
2018-08-12T18:35:17.378Z,25.20
2018-08-12T18:37:45.808Z,25.10
2018-08-12T18:40:14.241Z,25.00
2018-08-12T18:42:42.754Z,24.80
2018-08-12T18:45:11.245Z,24.70
2018-08-12T18:47:39.756Z,24.50
2018-08-12T18:50:10.002Z,24.40
2018-08-12T18:52:38.901Z,24.30
2018-08-12T18:55:08.638Z,24.20
2018-08-12T18:57:37.211Z,24.10
2018-08-12T19:00:07.627Z,24.00
2018-08-12T19:02:36.144Z,23.80
2018-08-12T19:05:05.361Z,23.60
2018-08-12T19:07:33.976Z,23.50
2018-08-12T19:10:02.525Z,23.30
2018-08-12T19:12:30.990Z,23.10
2018-08-12T19:14:59.476Z,23.00
2018-08-12T19:17:27.920Z,22.90
2018-08-12T19:19:56.434Z,22.70
2018-08-12T19:22:24.988Z,22.60
2018-08-12T19:24:53.456Z,22.50
2018-08-12T19:27:21.907Z,22.40
2018-08-12T19:29:50.427Z,22.30
2018-08-12T19:32:18.968Z,22.20
2018-08-12T19:34:47.876Z,22.10
2018-08-12T19:37:16.388Z,22.00
2018-08-12T19:39:44.845Z,21.90
2018-08-12T19:42:13.281Z,21.90
2018-08-12T19:44:41.903Z,21.70
2018-08-12T19:47:10.725Z,21.70
2018-08-12T19:49:39.179Z,21.60
2018-08-12T19:52:07.628Z,21.50
2018-08-12T19:54:36.113Z,21.40
2018-08-12T19:57:04.649Z,21.30
2018-08-12T19:59:33.128Z,21.20
2018-08-12T20:02:01.547Z,21.10
2018-08-12T20:04:29.953Z,21.10
2018-08-12T20:06:58.428Z,21.00
2018-08-12T20:09:26.952Z,20.90
2018-08-12T20:11:55.421Z,20.90
2018-08-12T20:14:23.892Z,20.80
2018-08-12T20:16:52.420Z,20.70
2018-08-12T20:19:20.916Z,20.70
2018-08-12T20:21:49.501Z,20.70
2018-08-12T20:24:18.158Z,20.60
2018-08-12T20:26:46.645Z,20.60
2018-08-12T20:29:15.149Z,20.50
2018-08-12T20:31:43.668Z,20.50
2018-08-12T20:34:12.603Z,20.50
2018-08-12T20:36:41.064Z,20.40
2018-08-12T20:39:11.705Z,20.40
2018-08-12T20:41:40.550Z,20.30
2018-08-12T20:44:09.175Z,20.20
2018-08-12T20:46:37.691Z,20.20
2018-08-12T20:49:09.009Z,20.10
2018-08-12T20:51:40.275Z,20.00
2018-08-12T20:54:09.528Z,20.00
2018-08-12T20:56:39.558Z,19.90
2018-08-12T20:59:08.015Z,19.80
2018-08-12T21:01:37.508Z,19.80
2018-08-12T21:04:06.003Z,19.70
2018-08-12T21:06:34.412Z,19.60
2018-08-12T21:09:06.620Z,19.60
2018-08-12T21:11:35.056Z,19.50
2018-08-12T21:14:03.607Z,19.50
2018-08-12T21:16:32.251Z,19.40
2018-08-12T21:19:04.600Z,19.40
2018-08-12T21:21:33.084Z,19.30
2018-08-12T21:24:01.845Z,19.30
2018-08-12T21:26:30.587Z,19.20
2018-08-12T21:28:59.032Z,19.20
2018-08-12T21:31:27.561Z,19.20
2018-08-12T21:33:56.064Z,19.10
2018-08-12T21:36:24.693Z,19.10
2018-08-12T21:38:53.279Z,19.00
2018-08-12T21:41:22.076Z,19.00
2018-08-12T21:43:50.767Z,18.90
2018-08-12T21:46:19.220Z,18.90
2018-08-12T21:48:47.733Z,18.90
2018-08-12T21:51:16.524Z,18.80
2018-08-12T21:53:45.020Z,18.80
2018-08-12T21:56:13.484Z,18.80
2018-08-12T21:58:42.121Z,18.80
2018-08-12T22:01:10.651Z,18.80
2018-08-12T22:03:39.373Z,18.80
2018-08-12T22:06:08.097Z,18.80
2018-08-12T22:08:36.645Z,18.80
2018-08-12T22:11:05.633Z,18.80
2018-08-12T22:13:34.293Z,18.80
2018-08-12T22:16:02.930Z,18.90
2018-08-12T22:18:31.756Z,18.90
2018-08-12T22:21:00.490Z,18.80
2018-08-12T22:23:29.042Z,18.80
2018-08-12T22:25:57.577Z,18.80
2018-08-12T22:28:26.233Z,18.80
2018-08-12T22:30:54.852Z,18.80
2018-08-12T22:33:23.476Z,18.80
2018-08-12T22:35:52.161Z,18.70
2018-08-12T22:38:21.991Z,18.70
2018-08-12T22:40:50.589Z,18.70
2018-08-12T22:43:19.532Z,18.70
2018-08-12T22:45:48.261Z,18.60
2018-08-12T22:48:17.020Z,18.60
2018-08-12T22:50:45.764Z,18.60
2018-08-12T22:53:14.667Z,18.60
2018-08-12T22:55:43.745Z,18.60
2018-08-12T22:58:12.828Z,18.50
2018-08-12T23:00:43.065Z,18.50
2018-08-12T23:03:11.934Z,18.40
2018-08-12T23:05:40.644Z,18.40
2018-08-12T23:08:11.170Z,18.40
2018-08-12T23:10:40.857Z,18.30
2018-08-12T23:13:09.801Z,18.30
2018-08-12T23:16:17.284Z,18.20
2018-08-12T23:18:46.228Z,18.20
2018-08-12T23:21:17.005Z,18.20
2018-08-12T23:23:46.824Z,18.20
2018-08-12T23:26:17.834Z,18.10
2018-08-12T23:28:46.970Z,18.10
2018-08-12T23:31:15.681Z,18.10
2018-08-12T23:33:44.249Z,18.10
2018-08-12T23:36:13.033Z,18.10
2018-08-12T23:38:41.601Z,18.10
2018-08-12T23:41:11.173Z,18.10
2018-08-12T23:43:39.748Z,18.10
2018-08-12T23:46:09.307Z,18.00
2018-08-12T23:48:38.267Z,18.00
2018-08-12T23:51:07.280Z,18.00
2018-08-12T23:53:35.980Z,18.00
2018-08-12T23:56:04.860Z,18.00
2018-08-12T23:58:33.403Z,18.00
